sensor_id;sensor_type;location;lat;lon;timestamp;temperature;humidity
25468;DHT22;13384;24.794;110.498;2023-02-28T00:02:14;10.10;99.90
25468;DHT22;13384;24.794;110.498;2023-02-28T00:04:47;10.20;99.90
25468;DHT22;13384;24.794;110.498;2023-02-28T00:07:23;10.20;99.90
25468;DHT22;13384;24.794;110.498;2023-02-28T00:09:54;10.20;99.90
25468;DHT22;13384;24.794;110.498;2023-02-28T00:12:25;10.20;99.90
25468;DHT22;13384;24.794;110.498;2023-02-28T00:14:57;10.30;99.90
25468;DHT22;13384;24.794;110.498;2023-02-28T00:17:28;10.30;99.90
25468;DHT22;13384;24.794;110.498;2023-02-28T00:20:04;10.30;99.90
25468;DHT22;13384;24.794;110.498;2023-02-28T00:22:39;10.50;99.90
25468;DHT22;13384;24.794;110.498;2023-02-28T00:25:12;10.60;99.90
25468;DHT22;13384;24.794;110.498;2023-02-28T00:27:45;10.70;99.90
25468;DHT22;13384;24.794;110.498;2023-02-28T00:30:19;10.60;99.90
25468;DHT22;13384;24.794;110.498;2023-02-28T00:32:51;10.70;99.90
25468;DHT22;13384;24.794;110.498;2023-02-28T00:35:22;10.80;99.90
25468;DHT22;13384;24.794;110.498;2023-02-28T00:37:53;10.90;99.90
25468;DHT22;13384;24.794;110.498;2023-02-28T00:40:23;10.90;99.90
25468;DHT22;13384;24.794;110.498;2023-02-28T00:42:54;11.00;99.90
25468;DHT22;13384;24.794;110.498;2023-02-28T00:45:25;11.00;99.90
25468;DHT22;13384;24.794;110.498;2023-02-28T00:47:58;11.10;99.90
25468;DHT22;13384;24.794;110.498;2023-02-28T00:50:29;11.20;99.90
25468;DHT22;13384;24.794;110.498;2023-02-28T00:53:00;11.20;99.90
25468;DHT22;13384;24.794;110.498;2023-02-28T00:55:31;11.30;99.90
25468;DHT22;13384;24.794;110.498;2023-02-28T00:58:02;11.30;99.90
25468;DHT22;13384;24.794;110.498;2023-02-28T01:00:32;11.30;99.90
25468;DHT22;13384;24.794;110.498;2023-02-28T01:03:03;11.50;99.90
25468;DHT22;13384;24.794;110.498;2023-02-28T01:05:34;11.60;99.90
25468;DHT22;13384;24.794;110.498;2023-02-28T01:08:05;11.80;99.90
25468;DHT22;13384;24.794;110.498;2023-02-28T01:10:36;11.90;99.90
25468;DHT22;13384;24.794;110.498;2023-02-28T01:13:08;12.00;99.90
25468;DHT22;13384;24.794;110.498;2023-02-28T01:15:46;12.00;99.90
25468;DHT22;13384;24.794;110.498;2023-02-28T01:18:20;12.10;99.90
25468;DHT22;13384;24.794;110.498;2023-02-28T01:20:51;12.20;99.90
25468;DHT22;13384;24.794;110.498;2023-02-28T01:23:23;12.30;99.90
25468;DHT22;13384;24.794;110.498;2023-02-28T01:26:17;12.40;99.90
25468;DHT22;13384;24.794;110.498;2023-02-28T01:28:49;12.50;99.90
25468;DHT22;13384;24.794;110.498;2023-02-28T01:31:22;12.60;99.90
25468;DHT22;13384;24.794;110.498;2023-02-28T01:33:56;12.80;99.90
25468;DHT22;13384;24.794;110.498;2023-02-28T01:36:29;12.90;99.90
25468;DHT22;13384;24.794;110.498;2023-02-28T01:39:00;13.00;99.90
25468;DHT22;13384;24.794;110.498;2023-02-28T01:41:33;13.10;99.90
25468;DHT22;13384;24.794;110.498;2023-02-28T01:47:14;13.30;99.90
25468;DHT22;13384;24.794;110.498;2023-02-28T01:49:45;13.40;99.90
25468;DHT22;13384;24.794;110.498;2023-02-28T01:52:16;13.50;99.90
25468;DHT22;13384;24.794;110.498;2023-02-28T01:54:55;13.60;99.90
25468;DHT22;13384;24.794;110.498;2023-02-28T01:57:34;13.80;99.90
25468;DHT22;13384;24.794;110.498;2023-02-28T02:00:12;13.90;99.90
25468;DHT22;13384;24.794;110.498;2023-02-28T02:02:50;14.00;99.90
25468;DHT22;13384;24.794;110.498;2023-02-28T02:05:30;14.00;99.90
25468;DHT22;13384;24.794;110.498;2023-02-28T02:08:46;14.10;99.90
25468;DHT22;13384;24.794;110.498;2023-02-28T02:11:30;14.30;99.90
25468;DHT22;13384;24.794;110.498;2023-02-28T02:17:18;14.50;99.70
25468;DHT22;13384;24.794;110.498;2023-02-28T02:35:23;15.30;98.30
25468;DHT22;13384;24.794;110.498;2023-02-28T02:38:03;15.40;97.10
25468;DHT22;13384;24.794;110.498;2023-02-28T02:44:05;15.70;95.70
25468;DHT22;13384;24.794;110.498;2023-02-28T02:46:42;15.90;96.00
25468;DHT22;13384;24.794;110.498;2023-02-28T02:49:35;15.90;95.60
25468;DHT22;13384;24.794;110.498;2023-02-28T02:52:09;16.00;95.80
25468;DHT22;13384;24.794;110.498;2023-02-28T02:54:47;16.10;95.70
25468;DHT22;13384;24.794;110.498;2023-02-28T02:57:55;16.10;95.40
25468;DHT22;13384;24.794;110.498;2023-02-28T03:00:36;16.20;95.20
25468;DHT22;13384;24.794;110.498;2023-02-28T03:03:12;16.30;95.00
25468;DHT22;13384;24.794;110.498;2023-02-28T03:05:50;16.50;94.60
25468;DHT22;13384;24.794;110.498;2023-02-28T03:08:21;16.50;93.90
25468;DHT22;13384;24.794;110.498;2023-02-28T03:10:59;16.70;94.20
25468;DHT22;13384;24.794;110.498;2023-02-28T03:16:47;16.90;94.10
25468;DHT22;13384;24.794;110.498;2023-02-28T03:19:52;17.00;93.40
25468;DHT22;13384;24.794;110.498;2023-02-28T03:25:45;17.10;92.90
25468;DHT22;13384;24.794;110.498;2023-02-28T03:31:11;17.30;92.60
25468;DHT22;13384;24.794;110.498;2023-02-28T03:34:10;17.50;92.10
25468;DHT22;13384;24.794;110.498;2023-02-28T03:36:50;17.60;92.30
25468;DHT22;13384;24.794;110.498;2023-02-28T03:39:39;17.70;91.60
25468;DHT22;13384;24.794;110.498;2023-02-28T03:42:19;17.80;91.60
25468;DHT22;13384;24.794;110.498;2023-02-28T03:44:58;17.90;92.00
25468;DHT22;13384;24.794;110.498;2023-02-28T03:50:44;18.20;91.20
25468;DHT22;13384;24.794;110.498;2023-02-28T03:53:29;18.30;90.90
25468;DHT22;13384;24.794;110.498;2023-02-28T03:58:55;18.70;90.50
25468;DHT22;13384;24.794;110.498;2023-02-28T04:01:44;18.80;90.30
25468;DHT22;13384;24.794;110.498;2023-02-28T04:04:16;18.90;89.90
25468;DHT22;13384;24.794;110.498;2023-02-28T04:06:50;18.90;89.50
25468;DHT22;13384;24.794;110.498;2023-02-28T04:09:22;19.00;89.60
25468;DHT22;13384;24.794;110.498;2023-02-28T04:11:54;19.00;88.90
25468;DHT22;13384;24.794;110.498;2023-02-28T04:14:27;19.00;89.60
25468;DHT22;13384;24.794;110.498;2023-02-28T04:16:58;19.10;89.30
25468;DHT22;13384;24.794;110.498;2023-02-28T04:19:36;19.20;88.70
25468;DHT22;13384;24.794;110.498;2023-02-28T04:22:07;19.40;85.60
25468;DHT22;13384;24.794;110.498;2023-02-28T04:24:39;19.30;82.80
25468;DHT22;13384;24.794;110.498;2023-02-28T04:27:12;19.40;87.90
25468;DHT22;13384;24.794;110.498;2023-02-28T04:30:05;19.50;86.70
25468;DHT22;13384;24.794;110.498;2023-02-28T04:32:36;19.70;86.20
25468;DHT22;13384;24.794;110.498;2023-02-28T04:35:07;19.50;87.10
25468;DHT22;13384;24.794;110.498;2023-02-28T04:37:40;19.60;85.80
25468;DHT22;13384;24.794;110.498;2023-02-28T04:40:11;19.70;80.00
25468;DHT22;13384;24.794;110.498;2023-02-28T04:42:42;19.90;86.80
25468;DHT22;13384;24.794;110.498;2023-02-28T04:45:13;20.10;85.30
25468;DHT22;13384;24.794;110.498;2023-02-28T04:47:45;20.20;86.10
25468;DHT22;13384;24.794;110.498;2023-02-28T04:50:16;20.40;84.70
25468;DHT22;13384;24.794;110.498;2023-02-28T04:52:47;20.40;83.50
25468;DHT22;13384;24.794;110.498;2023-02-28T04:55:19;20.40;82.00
25468;DHT22;13384;24.794;110.498;2023-02-28T04:57:50;20.40;83.30
25468;DHT22;13384;24.794;110.498;2023-02-28T05:00:21;20.60;77.90
25468;DHT22;13384;24.794;110.498;2023-02-28T05:02:54;20.70;82.90
25468;DHT22;13384;24.794;110.498;2023-02-28T05:05:25;20.50;79.20
25468;DHT22;13384;24.794;110.498;2023-02-28T05:07:56;20.70;79.70
25468;DHT22;13384;24.794;110.498;2023-02-28T05:10:31;20.70;77.00
25468;DHT22;13384;24.794;110.498;2023-02-28T05:13:03;20.70;79.50
25468;DHT22;13384;24.794;110.498;2023-02-28T05:15:34;20.70;79.60
25468;DHT22;13384;24.794;110.498;2023-02-28T05:18:05;20.50;81.00
25468;DHT22;13384;24.794;110.498;2023-02-28T05:20:36;20.50;80.20
25468;DHT22;13384;24.794;110.498;2023-02-28T05:23:12;20.70;81.50
25468;DHT22;13384;24.794;110.498;2023-02-28T05:25:43;21.00;79.10
25468;DHT22;13384;24.794;110.498;2023-02-28T05:28:34;21.10;79.90
25468;DHT22;13384;24.794;110.498;2023-02-28T05:31:05;21.10;79.00
25468;DHT22;13384;24.794;110.498;2023-02-28T05:33:36;21.40;78.20
25468;DHT22;13384;24.794;110.498;2023-02-28T05:36:08;21.20;80.40
25468;DHT22;13384;24.794;110.498;2023-02-28T05:38:39;20.90;75.30
25468;DHT22;13384;24.794;110.498;2023-02-28T05:41:11;21.10;80.60
25468;DHT22;13384;24.794;110.498;2023-02-28T05:43:42;21.20;79.40
25468;DHT22;13384;24.794;110.498;2023-02-28T05:46:13;21.20;78.50
25468;DHT22;13384;24.794;110.498;2023-02-28T05:48:47;20.80;78.90
25468;DHT22;13384;24.794;110.498;2023-02-28T05:51:18;20.90;81.20
25468;DHT22;13384;24.794;110.498;2023-02-28T05:53:54;21.20;79.60
25468;DHT22;13384;24.794;110.498;2023-02-28T05:56:26;21.50;79.00
25468;DHT22;13384;24.794;110.498;2023-02-28T05:58:58;21.60;78.70
25468;DHT22;13384;24.794;110.498;2023-02-28T06:01:37;21.60;78.30
25468;DHT22;13384;24.794;110.498;2023-02-28T06:04:10;21.50;77.60
25468;DHT22;13384;24.794;110.498;2023-02-28T06:06:58;21.60;78.20
25468;DHT22;13384;24.794;110.498;2023-02-28T06:09:29;21.70;78.50
25468;DHT22;13384;24.794;110.498;2023-02-28T06:12:03;21.70;74.50
25468;DHT22;13384;24.794;110.498;2023-02-28T06:14:36;21.70;77.20
25468;DHT22;13384;24.794;110.498;2023-02-28T06:17:09;21.90;78.00
25468;DHT22;13384;24.794;110.498;2023-02-28T06:19:42;22.20;76.90
25468;DHT22;13384;24.794;110.498;2023-02-28T06:22:19;22.00;76.50
25468;DHT22;13384;24.794;110.498;2023-02-28T06:24:50;21.90;76.70
25468;DHT22;13384;24.794;110.498;2023-02-28T06:27:22;21.80;77.30
25468;DHT22;13384;24.794;110.498;2023-02-28T06:29:55;22.00;77.70
25468;DHT22;13384;24.794;110.498;2023-02-28T06:32:28;22.10;76.00
25468;DHT22;13384;24.794;110.498;2023-02-28T06:34:59;22.10;76.10
25468;DHT22;13384;24.794;110.498;2023-02-28T06:37:32;22.10;75.00
25468;DHT22;13384;24.794;110.498;2023-02-28T06:40:03;22.20;77.10
25468;DHT22;13384;24.794;110.498;2023-02-28T06:42:37;22.20;77.00
25468;DHT22;13384;24.794;110.498;2023-02-28T06:45:08;22.30;76.10
25468;DHT22;13384;24.794;110.498;2023-02-28T06:47:41;22.40;77.60
25468;DHT22;13384;24.794;110.498;2023-02-28T06:50:14;22.40;76.40
25468;DHT22;13384;24.794;110.498;2023-02-28T06:52:49;22.50;76.00
25468;DHT22;13384;24.794;110.498;2023-02-28T06:55:26;22.50;76.90
25468;DHT22;13384;24.794;110.498;2023-02-28T06:57:58;22.60;74.80
25468;DHT22;13384;24.794;110.498;2023-02-28T07:00:30;22.70;76.00
25468;DHT22;13384;24.794;110.498;2023-02-28T07:03:01;22.60;72.30
25468;DHT22;13384;24.794;110.498;2023-02-28T07:05:31;22.40;75.10
25468;DHT22;13384;24.794;110.498;2023-02-28T07:08:04;22.50;74.40
25468;DHT22;13384;24.794;110.498;2023-02-28T07:10:38;22.50;74.20
25468;DHT22;13384;24.794;110.498;2023-02-28T07:13:14;22.60;75.10
25468;DHT22;13384;24.794;110.498;2023-02-28T07:15:52;22.50;75.00
25468;DHT22;13384;24.794;110.498;2023-02-28T07:18:23;22.60;74.90
25468;DHT22;13384;24.794;110.498;2023-02-28T07:20:54;22.80;75.10
25468;DHT22;13384;24.794;110.498;2023-02-28T07:23:26;22.90;75.30
25468;DHT22;13384;24.794;110.498;2023-02-28T07:25:57;22.90;75.30
25468;DHT22;13384;24.794;110.498;2023-02-28T07:28:28;23.00;74.90
25468;DHT22;13384;24.794;110.498;2023-02-28T07:31:06;22.90;75.30
25468;DHT22;13384;24.794;110.498;2023-02-28T07:33:37;22.70;72.20
25468;DHT22;13384;24.794;110.498;2023-02-28T07:36:18;22.50;76.80
25468;DHT22;13384;24.794;110.498;2023-02-28T07:38:51;22.50;73.50
25468;DHT22;13384;24.794;110.498;2023-02-28T07:41:23;22.50;73.30
25468;DHT22;13384;24.794;110.498;2023-02-28T07:43:58;22.50;73.60
25468;DHT22;13384;24.794;110.498;2023-02-28T07:46:29;22.50;69.50
25468;DHT22;13384;24.794;110.498;2023-02-28T07:49:06;22.40;72.90
25468;DHT22;13384;24.794;110.498;2023-02-28T07:51:37;22.70;74.20
25468;DHT22;13384;24.794;110.498;2023-02-28T07:54:08;22.70;73.80
25468;DHT22;13384;24.794;110.498;2023-02-28T07:56:39;22.60;72.00
25468;DHT22;13384;24.794;110.498;2023-02-28T07:59:10;22.90;74.50
25468;DHT22;13384;24.794;110.498;2023-02-28T08:01:41;22.80;70.60
25468;DHT22;13384;24.794;110.498;2023-02-28T08:04:14;23.00;72.90
25468;DHT22;13384;24.794;110.498;2023-02-28T08:06:45;23.00;70.40
25468;DHT22;13384;24.794;110.498;2023-02-28T08:09:17;23.00;73.30
25468;DHT22;13384;24.794;110.498;2023-02-28T08:11:48;23.00;69.20
25468;DHT22;13384;24.794;110.498;2023-02-28T08:14:18;23.00;73.80
25468;DHT22;13384;24.794;110.498;2023-02-28T08:16:49;23.00;73.20
25468;DHT22;13384;24.794;110.498;2023-02-28T08:19:20;22.80;72.20
25468;DHT22;13384;24.794;110.498;2023-02-28T08:21:53;22.90;72.30
25468;DHT22;13384;24.794;110.498;2023-02-28T08:24:24;22.90;72.60
25468;DHT22;13384;24.794;110.498;2023-02-28T08:26:56;23.00;72.70
25468;DHT22;13384;24.794;110.498;2023-02-28T08:29:28;23.10;71.90
25468;DHT22;13384;24.794;110.498;2023-02-28T08:32:00;23.10;73.10
25468;DHT22;13384;24.794;110.498;2023-02-28T08:34:31;22.90;70.80
25468;DHT22;13384;24.794;110.498;2023-02-28T08:37:03;22.80;73.60
25468;DHT22;13384;24.794;110.498;2023-02-28T08:39:37;23.00;73.50
25468;DHT22;13384;24.794;110.498;2023-02-28T08:42:13;23.00;71.00
25468;DHT22;13384;24.794;110.498;2023-02-28T08:44:44;22.90;72.90
25468;DHT22;13384;24.794;110.498;2023-02-28T08:47:16;23.00;71.80
25468;DHT22;13384;24.794;110.498;2023-02-28T08:49:47;22.90;71.80
25468;DHT22;13384;24.794;110.498;2023-02-28T08:52:19;22.90;73.00
25468;DHT22;13384;24.794;110.498;2023-02-28T08:54:50;22.90;72.10
25468;DHT22;13384;24.794;110.498;2023-02-28T08:57:21;22.80;73.80
25468;DHT22;13384;24.794;110.498;2023-02-28T09:00:23;22.80;71.50
25468;DHT22;13384;24.794;110.498;2023-02-28T09:02:54;22.70;73.30
25468;DHT22;13384;24.794;110.498;2023-02-28T09:05:25;22.70;72.60
25468;DHT22;13384;24.794;110.498;2023-02-28T09:07:56;22.60;73.10
25468;DHT22;13384;24.794;110.498;2023-02-28T09:10:27;22.60;73.60
25468;DHT22;13384;24.794;110.498;2023-02-28T09:12:58;22.40;73.70
25468;DHT22;13384;24.794;110.498;2023-02-28T09:15:29;22.40;73.00
25468;DHT22;13384;24.794;110.498;2023-02-28T09:18:00;22.30;75.50
25468;DHT22;13384;24.794;110.498;2023-02-28T09:20:31;22.30;75.70
25468;DHT22;13384;24.794;110.498;2023-02-28T09:23:02;22.30;76.00
25468;DHT22;13384;24.794;110.498;2023-02-28T09:25:34;22.10;76.30
25468;DHT22;13384;24.794;110.498;2023-02-28T09:28:05;22.10;77.20
25468;DHT22;13384;24.794;110.498;2023-02-28T09:30:36;22.10;74.30
25468;DHT22;13384;24.794;110.498;2023-02-28T09:33:09;21.90;76.70
25468;DHT22;13384;24.794;110.498;2023-02-28T09:35:41;21.80;76.90
25468;DHT22;13384;24.794;110.498;2023-02-28T09:38:13;21.80;77.80
25468;DHT22;13384;24.794;110.498;2023-02-28T09:40:56;21.70;82.00
25468;DHT22;13384;24.794;110.498;2023-02-28T09:43:33;21.60;81.00
25468;DHT22;13384;24.794;110.498;2023-02-28T09:46:21;21.50;80.30
25468;DHT22;13384;24.794;110.498;2023-02-28T09:49:25;21.50;81.90
25468;DHT22;13384;24.794;110.498;2023-02-28T09:52:39;21.30;84.50
25468;DHT22;13384;24.794;110.498;2023-02-28T09:55:37;21.10;84.30
25468;DHT22;13384;24.794;110.498;2023-02-28T10:03:47;20.60;87.10
25468;DHT22;13384;24.794;110.498;2023-02-28T10:06:34;20.50;87.20
25468;DHT22;13384;24.794;110.498;2023-02-28T10:09:08;20.30;87.70
25468;DHT22;13384;24.794;110.498;2023-02-28T10:11:44;20.30;90.20
25468;DHT22;13384;24.794;110.498;2023-02-28T10:14:19;20.10;90.80
25468;DHT22;13384;24.794;110.498;2023-02-28T10:20:11;19.80;91.00
25468;DHT22;13384;24.794;110.498;2023-02-28T10:26:01;19.50;92.80
25468;DHT22;13384;24.794;110.498;2023-02-28T10:28:33;19.40;93.00
25468;DHT22;13384;24.794;110.498;2023-02-28T10:31:04;19.20;94.00
25468;DHT22;13384;24.794;110.498;2023-02-28T10:33:36;19.00;94.20
25468;DHT22;13384;24.794;110.498;2023-02-28T10:36:18;18.90;94.50
25468;DHT22;13384;24.794;110.498;2023-02-28T10:38:51;18.70;94.90
25468;DHT22;13384;24.794;110.498;2023-02-28T10:41:29;18.60;94.50
25468;DHT22;13384;24.794;110.498;2023-02-28T10:44:20;18.40;95.60
25468;DHT22;13384;24.794;110.498;2023-02-28T10:46:53;18.30;94.30
25468;DHT22;13384;24.794;110.498;2023-02-28T10:49:28;18.20;96.10
25468;DHT22;13384;24.794;110.498;2023-02-28T10:52:01;18.10;96.70
25468;DHT22;13384;24.794;110.498;2023-02-28T10:54:36;18.00;96.80
25468;DHT22;13384;24.794;110.498;2023-02-28T10:57:20;17.90;97.00
25468;DHT22;13384;24.794;110.498;2023-02-28T10:59:53;17.80;97.20
25468;DHT22;13384;24.794;110.498;2023-02-28T11:02:38;17.80;96.90
25468;DHT22;13384;24.794;110.498;2023-02-28T11:05:31;17.70;97.00
25468;DHT22;13384;24.794;110.498;2023-02-28T11:08:18;17.60;97.40
25468;DHT22;13384;24.794;110.498;2023-02-28T11:10:57;17.40;97.30
25468;DHT22;13384;24.794;110.498;2023-02-28T11:13:35;17.40;97.80
25468;DHT22;13384;24.794;110.498;2023-02-28T11:16:12;17.40;97.50
25468;DHT22;13384;24.794;110.498;2023-02-28T11:18:50;17.30;97.80
25468;DHT22;13384;24.794;110.498;2023-02-28T11:21:32;17.20;98.20
25468;DHT22;13384;24.794;110.498;2023-02-28T11:24:22;17.10;98.60
25468;DHT22;13384;24.794;110.498;2023-02-28T11:26:56;17.10;98.70
25468;DHT22;13384;24.794;110.498;2023-02-28T11:29:29;17.10;98.90
25468;DHT22;13384;24.794;110.498;2023-02-28T11:32:21;17.00;99.00
25468;DHT22;13384;24.794;110.498;2023-02-28T11:35:24;17.00;98.40
25468;DHT22;13384;24.794;110.498;2023-02-28T11:37:55;16.90;98.00
25468;DHT22;13384;24.794;110.498;2023-02-28T11:40:36;16.90;98.90
25468;DHT22;13384;24.794;110.498;2023-02-28T11:51:59;16.80;99.30
25468;DHT22;13384;24.794;110.498;2023-02-28T12:06:25;16.70;99.80
25468;DHT22;13384;24.794;110.498;2023-02-28T12:24:39;16.60;99.90
25468;DHT22;13384;24.794;110.498;2023-02-28T12:27:18;16.60;99.90
25468;DHT22;13384;24.794;110.498;2023-02-28T12:29:58;16.60;99.90
25468;DHT22;13384;24.794;110.498;2023-02-28T12:32:40;16.60;99.90
25468;DHT22;13384;24.794;110.498;2023-02-28T12:35:52;16.60;99.90
25468;DHT22;13384;24.794;110.498;2023-02-28T12:39:16;16.60;99.90
25468;DHT22;13384;24.794;110.498;2023-02-28T12:41:43;16.60;99.90
25468;DHT22;13384;24.794;110.498;2023-02-28T12:47:39;16.40;98.70
25468;DHT22;13384;24.794;110.498;2023-02-28T12:50:12;16.60;99.60
25468;DHT22;13384;24.794;110.498;2023-02-28T12:53:00;16.70;99.90
25468;DHT22;13384;24.794;110.498;2023-02-28T13:02:02;16.50;99.90
25468;DHT22;13384;24.794;110.498;2023-02-28T13:10:45;16.50;99.90
25468;DHT22;13384;24.794;110.498;2023-02-28T13:13:23;16.40;99.90
25468;DHT22;13384;24.794;110.498;2023-02-28T13:18:38;16.40;99.90
25468;DHT22;13384;24.794;110.498;2023-02-28T13:21:32;16.40;99.90
25468;DHT22;13384;24.794;110.498;2023-02-28T13:24:45;16.40;99.90
25468;DHT22;13384;24.794;110.498;2023-02-28T13:27:36;16.30;99.90
25468;DHT22;13384;24.794;110.498;2023-02-28T13:36:26;16.20;99.90
25468;DHT22;13384;24.794;110.498;2023-02-28T13:42:35;16.10;99.90
25468;DHT22;13384;24.794;110.498;2023-02-28T13:47:44;16.10;99.90
25468;DHT22;13384;24.794;110.498;2023-02-28T13:50:37;15.90;99.90
25468;DHT22;13384;24.794;110.498;2023-02-28T13:56:05;15.80;99.90
25468;DHT22;13384;24.794;110.498;2023-02-28T14:07:25;15.60;99.90
25468;DHT22;13384;24.794;110.498;2023-02-28T14:10:48;15.60;99.90
25468;DHT22;13384;24.794;110.498;2023-02-28T14:13:47;15.60;99.90
25468;DHT22;13384;24.794;110.498;2023-02-28T14:16:24;15.50;99.90
25468;DHT22;13384;24.794;110.498;2023-02-28T14:22:43;15.40;99.90
25468;DHT22;13384;24.794;110.498;2023-02-28T14:31:18;15.00;99.90
25468;DHT22;13384;24.794;110.498;2023-02-28T14:36:37;15.10;99.90
25468;DHT22;13384;24.794;110.498;2023-02-28T14:39:21;15.10;99.90
25468;DHT22;13384;24.794;110.498;2023-02-28T14:41:54;15.10;99.90
25468;DHT22;13384;24.794;110.498;2023-02-28T14:44:27;15.00;99.90
25468;DHT22;13384;24.794;110.498;2023-02-28T14:47:19;15.00;99.90
25468;DHT22;13384;24.794;110.498;2023-02-28T14:49:56;15.00;99.90
25468;DHT22;13384;24.794;110.498;2023-02-28T14:52:30;14.90;99.90
25468;DHT22;13384;24.794;110.498;2023-02-28T14:55:12;14.80;99.90
25468;DHT22;13384;24.794;110.498;2023-02-28T14:57:57;14.90;99.90
25468;DHT22;13384;24.794;110.498;2023-02-28T15:00:53;14.90;99.90
25468;DHT22;13384;24.794;110.498;2023-02-28T15:03:32;14.80;99.90
25468;DHT22;13384;24.794;110.498;2023-02-28T15:06:14;14.70;99.90
25468;DHT22;13384;24.794;110.498;2023-02-28T15:09:09;14.70;99.90
25468;DHT22;13384;24.794;110.498;2023-02-28T15:11:51;14.50;99.90
25468;DHT22;13384;24.794;110.498;2023-02-28T15:14:22;14.50;99.90
25468;DHT22;13384;24.794;110.498;2023-02-28T15:17:23;14.60;99.90
25468;DHT22;13384;24.794;110.498;2023-02-28T15:19:56;14.60;99.90
25468;DHT22;13384;24.794;110.498;2023-02-28T15:22:34;14.50;99.90
25468;DHT22;13384;24.794;110.498;2023-02-28T15:25:11;14.60;99.90
25468;DHT22;13384;24.794;110.498;2023-02-28T15:27:55;14.50;99.90
25468;DHT22;13384;24.794;110.498;2023-02-28T15:31:03;14.50;99.90
25468;DHT22;13384;24.794;110.498;2023-02-28T15:33:35;14.50;99.90
25468;DHT22;13384;24.794;110.498;2023-02-28T15:36:17;14.50;99.90
25468;DHT22;13384;24.794;110.498;2023-02-28T15:38:53;14.40;99.90
25468;DHT22;13384;24.794;110.498;2023-02-28T15:41:38;14.40;99.90
25468;DHT22;13384;24.794;110.498;2023-02-28T15:44:30;14.30;99.90
25468;DHT22;13384;24.794;110.498;2023-02-28T15:47:26;14.30;99.90
25468;DHT22;13384;24.794;110.498;2023-02-28T15:50:05;14.20;99.90
25468;DHT22;13384;24.794;110.498;2023-02-28T15:52:43;14.30;99.90
25468;DHT22;13384;24.794;110.498;2023-02-28T15:55:26;14.20;99.90
25468;DHT22;13384;24.794;110.498;2023-02-28T15:58:01;14.10;99.90
25468;DHT22;13384;24.794;110.498;2023-02-28T16:00:33;14.20;99.90
25468;DHT22;13384;24.794;110.498;2023-02-28T16:03:34;14.20;99.90
25468;DHT22;13384;24.794;110.498;2023-02-28T16:08:48;14.30;99.90
25468;DHT22;13384;24.794;110.498;2023-02-28T16:11:22;14.20;99.90
25468;DHT22;13384;24.794;110.498;2023-02-28T16:13:53;14.10;99.90
25468;DHT22;13384;24.794;110.498;2023-02-28T16:16:26;14.10;99.90
25468;DHT22;13384;24.794;110.498;2023-02-28T16:18:57;14.10;99.90
25468;DHT22;13384;24.794;110.498;2023-02-28T16:21:39;14.20;99.90
25468;DHT22;13384;24.794;110.498;2023-02-28T16:24:13;14.10;99.90
25468;DHT22;13384;24.794;110.498;2023-02-28T16:26:52;14.20;99.90
25468;DHT22;13384;24.794;110.498;2023-02-28T16:29:45;14.10;99.90
25468;DHT22;13384;24.794;110.498;2023-02-28T16:32:36;14.10;99.90
25468;DHT22;13384;24.794;110.498;2023-02-28T16:35:10;14.00;99.90
25468;DHT22;13384;24.794;110.498;2023-02-28T16:37:44;14.00;99.90
25468;DHT22;13384;24.794;110.498;2023-02-28T16:40:37;14.00;99.90
25468;DHT22;13384;24.794;110.498;2023-02-28T16:43:16;14.00;99.90
25468;DHT22;13384;24.794;110.498;2023-02-28T16:45:57;13.90;99.90
25468;DHT22;13384;24.794;110.498;2023-02-28T16:48:29;13.90;99.90
25468;DHT22;13384;24.794;110.498;2023-02-28T16:51:00;13.90;99.90
25468;DHT22;13384;24.794;110.498;2023-02-28T16:53:34;13.90;99.90
25468;DHT22;13384;24.794;110.498;2023-02-28T16:56:06;13.90;99.90
25468;DHT22;13384;24.794;110.498;2023-02-28T16:58:41;13.90;99.90
25468;DHT22;13384;24.794;110.498;2023-02-28T17:01:13;13.90;99.90
25468;DHT22;13384;24.794;110.498;2023-02-28T17:03:45;13.90;99.90
25468;DHT22;13384;24.794;110.498;2023-02-28T17:06:20;13.80;99.90
25468;DHT22;13384;24.794;110.498;2023-02-28T17:08:52;13.80;99.90
25468;DHT22;13384;24.794;110.498;2023-02-28T17:11:24;13.60;99.90
25468;DHT22;13384;24.794;110.498;2023-02-28T17:13:56;13.60;99.90
25468;DHT22;13384;24.794;110.498;2023-02-28T17:16:33;13.60;99.90
25468;DHT22;13384;24.794;110.498;2023-02-28T17:19:09;13.70;99.90
25468;DHT22;13384;24.794;110.498;2023-02-28T17:21:41;13.60;99.90
25468;DHT22;13384;24.794;110.498;2023-02-28T17:24:12;13.60;99.90
25468;DHT22;13384;24.794;110.498;2023-02-28T17:26:58;13.70;99.90
25468;DHT22;13384;24.794;110.498;2023-02-28T17:29:33;13.60;99.90
25468;DHT22;13384;24.794;110.498;2023-02-28T17:32:04;13.60;99.90
25468;DHT22;13384;24.794;110.498;2023-02-28T17:34:45;13.60;99.90
25468;DHT22;13384;24.794;110.498;2023-02-28T17:37:16;13.70;99.90
25468;DHT22;13384;24.794;110.498;2023-02-28T17:39:48;13.60;99.90
25468;DHT22;13384;24.794;110.498;2023-02-28T17:42:19;13.60;99.90
25468;DHT22;13384;24.794;110.498;2023-02-28T17:44:50;13.60;99.90
25468;DHT22;13384;24.794;110.498;2023-02-28T17:47:21;13.60;99.90
25468;DHT22;13384;24.794;110.498;2023-02-28T17:49:52;13.60;99.90
25468;DHT22;13384;24.794;110.498;2023-02-28T17:52:23;13.60;99.90
25468;DHT22;13384;24.794;110.498;2023-02-28T17:54:55;13.50;99.90
25468;DHT22;13384;24.794;110.498;2023-02-28T17:57:26;13.50;99.90
25468;DHT22;13384;24.794;110.498;2023-02-28T17:59:57;13.40;99.90
25468;DHT22;13384;24.794;110.498;2023-02-28T18:02:38;13.40;99.90
25468;DHT22;13384;24.794;110.498;2023-02-28T18:05:10;13.40;99.90
25468;DHT22;13384;24.794;110.498;2023-02-28T18:07:41;13.40;99.90
25468;DHT22;13384;24.794;110.498;2023-02-28T18:10:18;13.50;99.90
25468;DHT22;13384;24.794;110.498;2023-02-28T18:12:51;13.40;99.90
25468;DHT22;13384;24.794;110.498;2023-02-28T18:15:22;13.40;99.90
25468;DHT22;13384;24.794;110.498;2023-02-28T18:17:54;13.40;99.90
25468;DHT22;13384;24.794;110.498;2023-02-28T18:20:25;13.40;99.90
25468;DHT22;13384;24.794;110.498;2023-02-28T18:22:58;13.30;99.90
25468;DHT22;13384;24.794;110.498;2023-02-28T18:25:29;13.30;99.90
25468;DHT22;13384;24.794;110.498;2023-02-28T18:28:02;13.20;99.90